sensor_id;sensor_type;location;lat;lon;timestamp;pressure;altitude;pressure_sealevel;temperature;humidity
9110;BME280;4590;51.462;6.692;2023-11-22T07:17:45;102772.47;;;5.11;72.33
9110;BME280;4590;51.462;6.692;2023-11-22T07:20:11;102770.38;;;5.13;72.44
9110;BME280;4590;51.462;6.692;2023-11-22T07:22:42;102780.03;;;5.15;71.82
9110;BME280;4590;51.462;6.692;2023-11-22T07:25:27;102781.06;;;5.14;71.85
9110;BME280;4590;51.462;6.692;2023-11-22T07:27:54;102786.75;;;5.13;71.95
9110;BME280;4590;51.462;6.692;2023-11-22T07:30:20;102783.41;;;5.11;72.17
9110;BME280;4590;51.462;6.692;2023-11-22T07:32:48;102773.53;;;5.10;72.50
9110;BME280;4590;51.462;6.692;2023-11-22T07:35:15;102775.03;;;5.06;72.02
9110;BME280;4590;51.462;6.692;2023-11-22T07:37:40;102776.13;;;4.98;72.14
9110;BME280;4590;51.462;6.692;2023-11-22T07:40:10;102773.75;;;5.08;72.46
9110;BME280;4590;51.462;6.692;2023-11-22T07:42:39;102773.53;;;5.10;72.20
9110;BME280;4590;51.462;6.692;2023-11-22T07:45:05;102781.72;;;5.10;72.05
9110;BME280;4590;51.462;6.692;2023-11-22T07:47:31;102781.50;;;5.11;72.05
9110;BME280;4590;51.462;6.692;2023-11-22T07:53:00;102763.28;;;5.05;72.32
9110;BME280;4590;51.462;6.692;2023-11-22T07:55:38;102751.16;;;5.01;73.05
9110;BME280;4590;51.462;6.692;2023-11-22T07:58:04;102749.41;;;5.07;72.96
9110;BME280;4590;51.462;6.692;2023-11-22T08:00:50;102749.41;;;5.07;72.25
9110;BME280;4590;51.462;6.692;2023-11-22T08:03:16;102744.16;;;5.12;72.41
9110;BME280;4590;51.462;6.692;2023-11-22T08:05:46;102752.31;;;5.12;72.05
9110;BME280;4590;51.462;6.692;2023-11-22T08:11:39;102755.50;;;5.09;72.40
9110;BME280;4590;51.462;6.692;2023-11-22T08:17:45;102762.31;;;5.24;72.47
9110;BME280;4590;51.462;6.692;2023-11-22T08:26:53;102774.03;;;5.32;71.95
9110;BME280;4590;51.462;6.692;2023-11-22T08:29:18;102789.50;;;5.38;71.95
9110;BME280;4590;51.462;6.692;2023-11-22T08:38:35;102817.09;;;5.54;71.45
9110;BME280;4590;51.462;6.692;2023-11-22T15:53:14;102633.16;;;8.60;56.19
9110;BME280;4590;51.462;6.692;2023-11-22T15:55:42;102621.09;;;8.61;55.99
9110;BME280;4590;51.462;6.692;2023-11-22T15:58:08;102618.34;;;8.61;56.13
9110;BME280;4590;51.462;6.692;2023-11-22T16:00:34;102608.44;;;8.60;56.31
9110;BME280;4590;51.462;6.692;2023-11-22T16:03:00;102591.16;;;8.60;56.35
9110;BME280;4590;51.462;6.692;2023-11-22T16:05:26;102587.81;;;8.58;56.14
9110;BME280;4590;51.462;6.692;2023-11-22T16:07:53;102573.25;;;8.57;56.17
9110;BME280;4590;51.462;6.692;2023-11-22T16:10:18;102561.94;;;8.54;56.29
9110;BME280;4590;51.462;6.692;2023-11-22T16:12:44;102572.34;;;8.52;56.34
9110;BME280;4590;51.462;6.692;2023-11-22T16:15:09;102581.41;;;8.52;56.48
9110;BME280;4590;51.462;6.692;2023-11-22T16:17:36;102583.56;;;8.50;56.53
9110;BME280;4590;51.462;6.692;2023-11-22T16:20:03;102592.91;;;8.49;56.74
9110;BME280;4590;51.462;6.692;2023-11-22T16:22:38;102609.59;;;8.48;56.79
9110;BME280;4590;51.462;6.692;2023-11-22T16:25:06;102617.25;;;8.46;56.74
9110;BME280;4590;51.462;6.692;2023-11-22T16:27:33;102627.38;;;8.45;57.25
9110;BME280;4590;51.462;6.692;2023-11-22T16:29:58;102627.38;;;8.45;57.09
9110;BME280;4590;51.462;6.692;2023-11-22T16:32:23;102625.72;;;8.44;57.10
9110;BME280;4590;51.462;6.692;2023-11-22T16:34:49;102630.38;;;8.43;57.25
9110;BME280;4590;51.462;6.692;2023-11-22T16:37:14;102617.72;;;8.42;57.43
9110;BME280;4590;51.462;6.692;2023-11-22T16:39:39;102616.06;;;8.41;57.62
9110;BME280;4590;51.462;6.692;2023-11-22T16:42:05;102620.13;;;8.39;57.58
9110;BME280;4590;51.462;6.692;2023-11-22T16:44:31;102615.72;;;8.38;57.63
9110;BME280;4590;51.462;6.692;2023-11-22T16:46:56;102613.22;;;8.36;57.87
9110;BME280;4590;51.462;6.692;2023-11-22T16:49:23;102606.88;;;8.36;57.90
9110;BME280;4590;51.462;6.692;2023-11-22T16:51:49;102608.25;;;8.33;57.45
9110;BME280;4590;51.462;6.692;2023-11-22T16:54:14;102604.03;;;8.31;58.06
9110;BME280;4590;51.462;6.692;2023-11-22T16:56:39;102599.63;;;8.30;57.84
9110;BME280;4590;51.462;6.692;2023-11-22T16:59:04;102599.03;;;8.28;58.03
9110;BME280;4590;51.462;6.692;2023-11-22T17:01:32;102587.25;;;8.27;58.40
9110;BME280;4590;51.462;6.692;2023-11-22T17:03:58;102580.09;;;8.26;58.25
9110;BME280;4590;51.462;6.692;2023-11-22T17:06:23;102567.47;;;8.25;58.53
9110;BME280;4590;51.462;6.692;2023-11-22T17:08:49;102551.31;;;8.12;58.49
9110;BME280;4590;51.462;6.692;2023-11-22T17:11:15;102548.41;;;8.19;58.90
9110;BME280;4590;51.462;6.692;2023-11-22T17:13:40;102534.63;;;8.14;59.00
9110;BME280;4590;51.462;6.692;2023-11-22T17:16:05;102524.47;;;8.14;58.75
9110;BME280;4590;51.462;6.692;2023-11-22T17:18:31;102511.84;;;8.13;59.13
9110;BME280;4590;51.462;6.692;2023-11-22T17:20:56;102531.88;;;8.14;59.11
9110;BME280;4590;51.462;6.692;2023-11-22T17:23:22;102542.00;;;8.13;59.11
9110;BME280;4590;51.462;6.692;2023-11-22T17:25:47;102546.66;;;8.13;59.72
9110;BME280;4590;51.462;6.692;2023-11-22T17:28:12;102540.34;;;8.12;59.75
9110;BME280;4590;51.462;6.692;2023-11-22T17:30:38;102548.56;;;8.12;60.27
9110;BME280;4590;51.462;6.692;2023-11-22T17:33:03;102536.53;;;8.13;60.16
9110;BME280;4590;51.462;6.692;2023-11-22T17:35:29;102520.56;;;8.10;60.30
9110;BME280;4590;51.462;6.692;2023-11-22T17:37:55;102514.84;;;8.12;60.58
9110;BME280;4590;51.462;6.692;2023-11-22T17:40:23;102516.75;;;8.11;60.83
9110;BME280;4590;51.462;6.692;2023-11-22T17:42:49;102526.78;;;8.05;61.65
9110;BME280;4590;51.462;6.692;2023-11-22T17:45:14;102529.88;;;8.09;61.02
9110;BME280;4590;51.462;6.692;2023-11-22T17:47:39;102522.72;;;8.08;61.55
9110;BME280;4590;51.462;6.692;2023-11-22T17:50:05;102520.56;;;8.10;61.37
9110;BME280;4590;51.462;6.692;2023-11-22T17:52:31;102525.22;;;8.09;61.58
9110;BME280;4590;51.462;6.692;2023-11-22T17:54:57;102526.88;;;8.10;61.50
9110;BME280;4590;51.462;6.692;2023-11-22T17:57:23;102528.38;;;8.01;62.46
9110;BME280;4590;51.462;6.692;2023-11-22T17:59:48;102522.13;;;8.06;61.86
9110;BME280;4590;51.462;6.692;2023-11-22T18:02:13;102519.38;;;8.06;61.98
9110;BME280;4590;51.462;6.692;2023-11-22T18:04:40;102519.06;;;8.02;62.25
9110;BME280;4590;51.462;6.692;2023-11-22T18:07:05;102518.97;;;7.97;62.48
9110;BME280;4590;51.462;6.692;2023-11-22T18:09:31;102518.72;;;7.99;62.48
9110;BME280;4590;51.462;6.692;2023-11-22T18:11:59;102524.22;;;7.99;62.43
9110;BME280;4590;51.462;6.692;2023-11-22T18:14:25;102526.13;;;7.98;62.29
9110;BME280;4590;51.462;6.692;2023-11-22T18:16:50;102511.56;;;7.98;62.28
9110;BME280;4590;51.462;6.692;2023-11-22T18:19:15;102504.66;;;7.95;62.63
9110;BME280;4590;51.462;6.692;2023-11-22T18:21:41;102509.31;;;7.95;62.81
9110;BME280;4590;51.462;6.692;2023-11-22T18:24:07;102507.06;;;7.92;63.01
9110;BME280;4590;51.462;6.692;2023-11-22T18:26:35;102514.69;;;7.90;63.17
9110;BME280;4590;51.462;6.692;2023-11-22T18:29:00;102501.75;;;7.85;63.00
9110;BME280;4590;51.462;6.692;2023-11-22T18:31:26;102500.09;;;7.84;63.10
9110;BME280;4590;51.462;6.692;2023-11-22T18:33:51;102501.75;;;7.85;63.59
9110;BME280;4590;51.462;6.692;2023-11-22T18:36:16;102501.16;;;7.83;63.34
9110;BME280;4590;51.462;6.692;2023-11-22T18:38:44;102503.91;;;7.83;63.45
9110;BME280;4590;51.462;6.692;2023-11-22T18:41:12;102500.09;;;7.84;64.14
9110;BME280;4590;51.462;6.692;2023-11-22T18:43:37;102497.34;;;7.84;63.76
9110;BME280;4590;51.462;6.692;2023-11-22T18:46:03;102500.09;;;7.84;63.69
9110;BME280;4590;51.462;6.692;2023-11-22T18:48:30;102498.19;;;7.85;64.11
9110;BME280;4590;51.462;6.692;2023-11-22T18:50:56;102503.19;;;7.76;64.84
9110;BME280;4590;51.462;6.692;2023-11-22T18:53:21;102497.59;;;7.83;64.02
9110;BME280;4590;51.462;6.692;2023-11-22T18:55:46;102491.28;;;7.82;63.81
9110;BME280;4590;51.462;6.692;2023-11-22T18:58:11;102484.97;;;7.82;63.74
9110;BME280;4590;51.462;6.692;2023-11-22T19:00:37;102492.81;;;7.78;64.38
9110;BME280;4590;51.462;6.692;2023-11-22T19:03:02;102494.50;;;7.79;64.35
9110;BME280;4590;51.462;6.692;2023-11-22T19:05:27;102490.91;;;7.79;64.39
9110;BME280;4590;51.462;6.692;2023-11-22T19:25:59;102495.09;;;7.81;64.84
9110;BME280;4590;51.462;6.692;2023-11-22T19:28:27;102479.97;;;7.79;64.80
9110;BME280;4590;51.462;6.692;2023-11-22T19:30:54;102486.03;;;7.81;65.13
9110;BME280;4590;51.462;6.692;2023-11-22T19:33:19;102486.88;;;7.81;65.06
9110;BME280;4590;51.462;6.692;2023-11-22T19:35:45;102483.06;;;7.82;64.89
9110;BME280;4590;51.462;6.692;2023-11-22T19:48:23;102474.81;;;7.82;64.93
